Ajite — FGE8175 — position and weather

sailwx.info

Track history (hours):
 
Tides and Currents Weather Stations Pressure Air Temp Water Temp Dewpoint Dewpoint Depression Visibility Wind Speed Wind Dir Waves Ship Positions

Ajite

Last reported at 2018-Jun-15 16:00 UTC. Time now 2018-Jun-24 04:49 UTC.
Position N 39°30' E 002°45'.
Warning: this ship's position is 8 days out of date.

Length 14 m.

Type: Sailing vessel. MMSI: 227679170.

Date/timePositionNaut miles runAvg speedWind from/ knotsBaromVisibWave heightAir tempDewpointWater temp
2018-Jun-15 16:00N 39°30' E 002°45'1 1.7
2018-Jun-15 15:30N 39°30' E 002°44'2 3.9
2018-Jun-15 15:01N 39°28' E 002°44'1 2.5
2018-Jun-15 14:29N 39°26' E 002°45'0 0.0
2018-Jun-15 13:56N 39°26' E 002°45'0 0.0
2018-Jun-15 13:29N 39°26' E 002°45'2 3.6
2018-Jun-15 13:00N 39°25' E 002°44'4 0.1
2018-Jun-14 09:35N 39°22' E 002°47'1 7.4
2018-Jun-14 09:30N 39°22' E 002°46'4 6.8
2018-Jun-14 08:59N 39°23' E 002°42'3 6.7
2018-Jun-14 08:30N 39°25' E 002°38'3 6.7
2018-Jun-14 08:00N 39°27' E 002°35'3 0.2
2018-Jun-13 14:11N 39°28' E 002°32'1 6.1
2018-Jun-13 13:58N 39°29' E 002°33'2 4.7
2018-Jun-13 13:30N 39°31' E 002°35'1 2.5
2018-Jun-13 13:00N 39°31' E 002°37'3 4.9
2018-Jun-13 12:29N 39°29' E 002°39'1 2.8
2018-Jun-13 12:00N 39°30' E 002°40'1 2.8
2018-Jun-13 11:30N 39°30' E 002°42'1 2.3
2018-Jun-13 11:00N 39°31' E 002°43'2 3.5
2018-Jun-13 10:29N 39°30' E 002°45'0 0.0
2018-Jun-13 09:56N 39°30' E 002°45'  
Track history (hours):
 
Tides and Currents Weather Stations Pressure Air Temp Water Temp Dewpoint Dewpoint Depression Visibility Wind Speed Wind Dir Waves Ship Positions

Ajite

Last reported at 2018-Jun-15 16:00 UTC. Time now 2018-Jun-24 04:49 UTC.
Position N 39°30' E 002°45'.
Warning: this ship's position is 8 days out of date.

Length 14 m.

Type: Sailing vessel. MMSI: 227679170.

Date/timePositionNaut miles runAvg speedWind from/ knotsBaromVisibWave heightAir tempDewpointWater temp
2018-Jun-15 16:00N 39°30' E 002°45'1 1.7
2018-Jun-15 15:30N 39°30' E 002°44'2 3.9
2018-Jun-15 15:01N 39°28' E 002°44'1 2.5
2018-Jun-15 14:29N 39°26' E 002°45'0 0.0
2018-Jun-15 13:56N 39°26' E 002°45'0 0.0
2018-Jun-15 13:29N 39°26' E 002°45'2 3.6
2018-Jun-15 13:00N 39°25' E 002°44'4 0.1
2018-Jun-14 09:35N 39°22' E 002°47'1 7.4
2018-Jun-14 09:30N 39°22' E 002°46'4 6.8
2018-Jun-14 08:59N 39°23' E 002°42'3 6.7
2018-Jun-14 08:30N 39°25' E 002°38'3 6.7
2018-Jun-14 08:00N 39°27' E 002°35'3 0.2
2018-Jun-13 14:11N 39°28' E 002°32'1 6.1
2018-Jun-13 13:58N 39°29' E 002°33'2 4.7
2018-Jun-13 13:30N 39°31' E 002°35'1 2.5
2018-Jun-13 13:00N 39°31' E 002°37'3 4.9
2018-Jun-13 12:29N 39°29' E 002°39'1 2.8
2018-Jun-13 12:00N 39°30' E 002°40'1 2.8
2018-Jun-13 11:30N 39°30' E 002°42'1 2.3
2018-Jun-13 11:00N 39°31' E 002°43'2 3.5
2018-Jun-13 10:29N 39°30' E 002°45'0 0.0
2018-Jun-13 09:56N 39°30' E 002°45'  

Dump ship's entire track history